Terminal Aerodrome Forecast
Issued by NWS

Home | Current Version | Previous Version | Text Only | Print | Product List | Glossary On
Versions: 1 2 3 4 5 6 7 8 9 10 11 12 13 14 15 16 17 18 19 20 21
000
FTUS43 KDMX 280117 AAA
TAFOTM
TAF AMD
KOTM 280117Z 2801/2824 01010KT P6SM SCT030 BKN090
     FM280300 03006KT P6SM BKN090
     FM280800 35006KT P6SM BKN050
     FM281500 32011KT P6SM SCT250=

USA.gov is the U.S. government's official web portal to all federal, state and local government web resources and services.